createdAt,value
2022-09-03T00:00:25.270Z,58.18
2022-09-03T00:02:59.942Z,58.81
2022-09-03T00:05:36.816Z,58.86
2022-09-03T00:08:08.676Z,57.94
2022-09-03T00:10:42.864Z,59.07
2022-09-03T00:13:10.912Z,58.99
2022-09-03T00:15:41.356Z,58.64
2022-09-03T00:18:12.116Z,59.81
2022-09-03T00:20:43.569Z,59.75
2022-09-03T00:23:16.447Z,59.30
2022-09-03T00:25:46.566Z,59.40
2022-09-03T00:28:18.693Z,59.00
2022-09-03T00:30:47.447Z,58.79
2022-09-03T00:33:21.812Z,59.15
2022-09-03T00:35:54.060Z,58.76
2022-09-03T00:38:22.177Z,59.80
2022-09-03T00:41:07.723Z,59.17
2022-09-03T00:43:48.067Z,59.78
2022-09-03T00:46:22.361Z,59.19
2022-09-03T00:49:00.700Z,59.48
2022-09-03T00:51:35.960Z,60.50
2022-09-03T00:54:07.283Z,60.25
2022-09-03T00:56:39.468Z,59.82
2022-09-03T00:59:19.212Z,59.97
2022-09-03T01:01:52.234Z,59.98
2022-09-03T01:04:30.205Z,59.81
2022-09-03T01:07:07.024Z,60.75
2022-09-03T01:09:48.890Z,61.05
2022-09-03T01:12:21.753Z,60.86
2022-09-03T01:14:59.793Z,60.09
2022-09-03T01:17:38.190Z,59.99
2022-09-03T01:20:15.822Z,60.14
2022-09-03T01:23:20.278Z,60.63
2022-09-03T01:25:54.560Z,60.56
2022-09-03T01:28:43.753Z,60.49
2022-09-03T01:31:19.110Z,60.92
2022-09-03T01:33:51.831Z,60.50
2022-09-03T01:36:24.300Z,60.66
2022-09-03T01:38:56.273Z,60.38
2022-09-03T01:41:47.495Z,59.84
2022-09-03T01:44:23.492Z,60.63
2022-09-03T01:46:55.372Z,60.36
2022-09-03T01:49:25.869Z,60.36
2022-09-03T01:51:59.993Z,60.51
2022-09-03T01:54:37.390Z,60.91
2022-09-03T01:57:31.280Z,60.76
2022-09-03T02:00:08.253Z,61.17
2022-09-03T02:02:36.883Z,61.61
2022-09-03T02:05:07.928Z,60.26
2022-09-03T02:07:38.085Z,60.16
2022-09-03T02:10:08.823Z,60.76
2022-09-03T02:12:38.363Z,60.06
2022-09-03T02:15:12.326Z,60.43
2022-09-03T02:17:42.732Z,60.59
2022-09-03T02:20:12.751Z,60.71
2022-09-03T02:22:40.764Z,60.17
2022-09-03T02:25:10.917Z,60.84
2022-09-03T02:27:38.997Z,60.49
2022-09-03T02:30:09.999Z,60.08
2022-09-03T02:32:37.790Z,60.95
2022-09-03T02:35:05.981Z,60.21
2022-09-03T02:37:34.867Z,60.35
2022-09-03T02:40:06.600Z,61.67
2022-09-03T02:42:34.331Z,61.60
2022-09-03T02:45:10.779Z,62.47
2022-09-03T02:47:41.784Z,61.40
2022-09-03T02:50:10.436Z,62.77
2022-09-03T02:52:38.464Z,62.67
2022-09-03T02:55:07.319Z,61.96
2022-09-03T02:57:35.071Z,62.91
2022-09-03T03:00:03.128Z,62.78
2022-09-03T03:02:30.925Z,62.34
2022-09-03T03:05:00.179Z,62.43
2022-09-03T03:07:31.376Z,62.59
2022-09-03T03:09:59.765Z,62.81
2022-09-03T03:12:27.484Z,62.93
2022-09-03T03:14:55.215Z,63.10
2022-09-03T03:17:22.926Z,62.33
2022-09-03T03:19:50.649Z,62.61
2022-09-03T03:22:19.683Z,62.21
2022-09-03T03:24:50.329Z,62.30
2022-09-03T03:27:18.862Z,62.38
2022-09-03T03:29:46.574Z,62.86
2022-09-03T03:32:14.288Z,62.71
2022-09-03T03:34:41.978Z,62.78
2022-09-03T03:37:09.688Z,62.45
2022-09-03T03:39:38.786Z,63.36
2022-09-03T03:42:06.632Z,63.90
2022-09-03T03:44:34.337Z,63.64
2022-09-03T03:47:03.045Z,63.62
2022-09-03T03:49:30.744Z,63.40
2022-09-03T03:51:58.479Z,63.97
2022-09-03T03:54:26.500Z,62.67
2022-09-03T03:56:55.940Z,62.34
2022-09-03T03:59:23.702Z,63.28
2022-09-03T04:01:52.371Z,62.75
2022-09-03T04:04:20.179Z,63.14
2022-09-03T04:06:48.376Z,63.66
2022-09-03T04:09:16.080Z,63.12
2022-09-03T04:11:43.784Z,63.02
2022-09-03T04:14:12.867Z,62.94
2022-09-03T04:16:40.673Z,62.57
2022-09-03T04:19:08.447Z,62.52
2022-09-03T04:21:36.687Z,62.92
2022-09-03T04:24:06.065Z,62.78
2022-09-03T04:26:34.620Z,62.99
2022-09-03T04:29:06.119Z,62.88
2022-09-03T04:31:36.463Z,64.02
2022-09-03T04:34:06.466Z,63.24
2022-09-03T04:36:34.925Z,63.00
2022-09-03T04:39:04.109Z,63.05
2022-09-03T04:41:32.784Z,63.00
2022-09-03T04:44:00.869Z,62.96
2022-09-03T04:46:33.191Z,62.77
2022-09-03T04:49:04.083Z,61.91
2022-09-03T04:51:31.944Z,62.13
2022-09-03T04:54:01.201Z,62.93
2022-09-03T04:56:30.251Z,63.12
2022-09-03T04:58:59.622Z,62.55
2022-09-03T05:01:31.615Z,62.29
2022-09-03T05:04:00.104Z,62.13
2022-09-03T05:06:30.704Z,62.56
2022-09-03T05:08:58.944Z,62.23
2022-09-03T05:11:27.825Z,62.91
2022-09-03T05:13:56.828Z,62.54
2022-09-03T05:16:25.608Z,62.59
2022-09-03T05:18:53.960Z,61.98
2022-09-03T05:21:22.590Z,61.85
2022-09-03T05:23:52.703Z,61.70
2022-09-03T05:26:21.964Z,61.42
2022-09-03T05:28:49.946Z,61.09
2022-09-03T05:31:19.505Z,61.85
2022-09-03T05:33:48.368Z,62.16
2022-09-03T05:36:17.382Z,62.50
2022-09-03T05:38:45.632Z,62.46
2022-09-03T05:41:15.620Z,62.19
2022-09-03T05:43:44.486Z,63.14
2022-09-03T05:46:13.983Z,62.42
2022-09-03T05:48:43.029Z,62.90
2022-09-03T05:51:12.721Z,64.06
2022-09-03T05:53:41.313Z,64.07
2022-09-03T05:56:12.184Z,64.39
2022-09-03T05:58:44.177Z,63.91
2022-09-03T06:01:14.157Z,64.33
2022-09-03T06:03:42.962Z,64.72
2022-09-03T06:06:11.248Z,64.64
2022-09-03T06:08:39.208Z,65.19
2022-09-03T06:11:07.566Z,65.25
2022-09-03T06:13:35.527Z,64.72
2022-09-03T06:16:08.838Z,65.02
2022-09-03T06:18:36.830Z,65.47
2022-09-03T06:21:06.715Z,64.19
2022-09-03T06:23:35.227Z,64.16
2022-09-03T06:26:06.154Z,64.53
2022-09-03T06:28:35.967Z,65.29
2022-09-03T06:31:06.943Z,65.21
2022-09-03T06:33:36.884Z,65.26
2022-09-03T06:36:08.860Z,65.37
2022-09-03T06:38:38.902Z,65.08
2022-09-03T06:41:08.202Z,65.66
2022-09-03T06:43:37.589Z,65.06
2022-09-03T06:46:08.678Z,65.55
2022-09-03T06:48:37.101Z,66.00
2022-09-03T06:51:07.120Z,65.78
2022-09-03T06:53:35.978Z,65.22
2022-09-03T06:56:07.742Z,65.50
2022-09-03T06:58:43.120Z,65.28
2022-09-03T07:01:14.426Z,65.39
2022-09-03T07:03:43.681Z,65.13
2022-09-03T07:06:13.219Z,65.47
2022-09-03T07:08:42.392Z,65.63
2022-09-03T07:11:11.958Z,65.51
2022-09-03T07:13:41.675Z,65.43
2022-09-03T07:16:10.965Z,65.27
2022-09-03T07:18:40.658Z,64.92
2022-09-03T07:21:10.931Z,65.22
2022-09-03T07:23:39.498Z,65.03
2022-09-03T07:26:11.152Z,64.74
2022-09-03T07:28:40.430Z,64.75
2022-09-03T07:31:11.613Z,64.85
2022-09-03T07:33:40.720Z,64.14
2022-09-03T07:36:10.014Z,64.06
2022-09-03T07:38:38.154Z,63.82
2022-09-03T07:41:08.115Z,63.68
2022-09-03T07:43:37.063Z,63.71
2022-09-03T07:46:04.781Z,62.99
2022-09-03T07:48:37.192Z,63.44
2022-09-03T07:51:07.171Z,63.03
2022-09-03T07:53:35.096Z,62.40
2022-09-03T07:56:04.172Z,61.76
2022-09-03T07:58:32.615Z,61.73
2022-09-03T08:01:00.641Z,61.67
2022-09-03T08:03:29.641Z,61.49
2022-09-03T08:06:03.404Z,61.32
2022-09-03T08:08:34.545Z,61.05
2022-09-03T08:11:10.852Z,60.50
2022-09-03T08:13:40.724Z,59.83
2022-09-03T08:16:09.368Z,59.25
2022-09-03T08:18:39.104Z,59.32
2022-09-03T08:21:08.361Z,59.37
2022-09-03T08:23:39.440Z,59.19
2022-09-03T08:26:07.881Z,59.69
2022-09-03T08:28:36.067Z,59.02
2022-09-03T08:31:10.045Z,58.67
2022-09-03T08:33:38.269Z,58.74
2022-09-03T08:36:07.791Z,58.29
2022-09-03T08:38:36.603Z,58.12
2022-09-03T08:41:08.512Z,57.79
2022-09-03T08:43:44.793Z,58.90
2022-09-03T08:46:12.832Z,58.21
2022-09-03T08:48:40.583Z,57.57
2022-09-03T08:51:09.483Z,57.42
2022-09-03T08:53:45.223Z,57.15
2022-09-03T08:56:20.625Z,57.43
2022-09-03T08:58:48.358Z,57.80
2022-09-03T09:01:26.657Z,56.85
2022-09-03T09:03:58.345Z,56.93
2022-09-03T09:06:31.108Z,57.21
2022-09-03T09:09:04.819Z,57.49
2022-09-03T09:11:47.731Z,57.03
2022-09-03T09:14:20.655Z,55.83
2022-09-03T09:16:53.444Z,56.43
2022-09-03T09:19:31.583Z,56.09
2022-09-03T09:22:03.039Z,55.62
2022-09-03T09:24:38.128Z,55.94
2022-09-03T09:27:07.700Z,55.75
2022-09-03T09:29:37.608Z,55.27
2022-09-03T09:32:06.204Z,54.77
2022-09-03T09:34:36.690Z,54.95
2022-09-03T09:37:06.400Z,55.43
2022-09-03T09:39:34.123Z,54.77
2022-09-03T09:42:08.173Z,54.46
2022-09-03T09:44:38.049Z,54.47
2022-09-03T09:47:08.428Z,54.61
2022-09-03T09:49:37.643Z,55.00
2022-09-03T09:52:11.855Z,54.33
2022-09-03T09:54:40.679Z,55.26
2022-09-03T09:57:18.464Z,54.86
2022-09-03T09:59:46.917Z,54.37
2022-09-03T10:02:21.887Z,54.17
2022-09-03T10:04:50.003Z,54.29
2022-09-03T10:07:24.071Z,52.78
2022-09-03T10:10:03.066Z,53.72
2022-09-03T10:12:35.859Z,53.68
2022-09-03T10:15:13.928Z,53.91
2022-09-03T10:17:48.650Z,53.67
2022-09-03T10:20:31.079Z,53.22
2022-09-03T10:23:02.461Z,52.93
2022-09-03T10:25:39.004Z,52.81
2022-09-03T10:28:10.578Z,53.24
2022-09-03T10:30:54.056Z,51.25
2022-09-03T10:33:25.407Z,50.75
2022-09-03T10:35:55.112Z,51.17
2022-09-03T10:38:28.568Z,51.36
2022-09-03T10:41:04.787Z,51.18
2022-09-03T10:43:48.024Z,50.71
2022-09-03T10:46:23.393Z,50.41
2022-09-03T10:49:08.223Z,51.32
2022-09-03T10:51:37.982Z,51.34
2022-09-03T10:54:20.682Z,51.00
2022-09-03T10:56:54.715Z,51.64
2022-09-03T10:59:37.313Z,50.59
2022-09-03T11:02:22.583Z,50.47
2022-09-03T11:04:54.892Z,50.45
2022-09-03T11:07:25.284Z,48.37
2022-09-03T11:09:58.143Z,47.66
2022-09-03T11:12:29.484Z,47.22
2022-09-03T11:15:03.113Z,46.56
2022-09-03T11:17:35.049Z,47.43
2022-09-03T11:20:12.406Z,46.27
2022-09-03T11:22:43.202Z,46.51
2022-09-03T11:25:12.783Z,46.12
2022-09-03T11:27:56.585Z,46.31
2022-09-03T11:30:29.491Z,45.66
2022-09-03T11:33:00.416Z,45.56
2022-09-03T11:35:30.016Z,45.38
2022-09-03T11:38:00.717Z,45.24
2022-09-03T11:40:34.817Z,45.25
2022-09-03T11:43:13.871Z,45.81
2022-09-03T11:45:43.129Z,46.50
2022-09-03T11:48:33.075Z,46.75
2022-09-03T11:51:00.788Z,47.16
2022-09-03T11:53:35.444Z,46.89
2022-09-03T11:56:18.108Z,46.61
2022-09-03T11:58:47.478Z,47.31
2022-09-03T12:01:19.020Z,46.61
2022-09-03T12:03:49.919Z,46.62
2022-09-03T12:06:44.355Z,46.85
2022-09-03T12:09:46.110Z,46.85
2022-09-03T12:12:28.011Z,47.25
2022-09-03T12:15:00.156Z,46.51
2022-09-03T12:17:33.983Z,46.54
2022-09-03T12:20:03.572Z,47.14
2022-09-03T12:22:31.759Z,46.45
2022-09-03T12:25:08.953Z,46.51
2022-09-03T12:27:39.935Z,46.08
2022-09-03T12:30:16.706Z,45.43
2022-09-03T12:32:46.420Z,45.86
2022-09-03T12:35:58.101Z,45.79
2022-09-03T12:38:07.552Z,45.83
2022-09-03T12:40:36.165Z,45.83
2022-09-03T12:43:49.891Z,45.62
2022-09-03T12:46:17.596Z,46.25
2022-09-03T12:51:52.491Z,46.42
2022-09-03T12:54:23.184Z,46.31
2022-09-03T12:56:55.019Z,46.70
2022-09-03T12:59:23.943Z,47.01
2022-09-03T13:01:53.158Z,46.90
2022-09-03T13:04:26.774Z,46.67
2022-09-03T13:06:57.144Z,46.59
2022-09-03T13:09:29.783Z,47.41
2022-09-03T13:11:59.051Z,46.26
2022-09-03T13:14:27.800Z,46.04
2022-09-03T13:17:09.653Z,46.04
2022-09-03T13:19:45.152Z,45.71
2022-09-03T13:22:17.871Z,45.53
2022-09-03T13:24:56.880Z,45.88
2022-09-03T13:27:29.729Z,46.10
2022-09-03T13:30:06.876Z,45.83
2022-09-03T13:32:43.189Z,45.81
2022-09-03T13:35:18.600Z,46.30
2022-09-03T13:37:49.180Z,45.94
2022-09-03T13:40:21.829Z,45.98
2022-09-03T13:42:54.321Z,45.71
2022-09-03T13:45:29.349Z,45.47
2022-09-03T13:48:18.573Z,44.96
2022-09-03T13:50:51.462Z,44.84
2022-09-03T13:53:23.480Z,45.30
2022-09-03T13:55:54.227Z,45.24
2022-09-03T13:58:27.676Z,44.82
2022-09-03T14:01:08.800Z,45.09
2022-09-03T14:03:45.666Z,44.90
2022-09-03T14:06:27.382Z,45.37
2022-09-03T14:09:04.840Z,44.90
2022-09-03T14:11:38.922Z,45.31
2022-09-03T14:14:14.963Z,45.21
2022-09-03T14:16:46.163Z,44.58
2022-09-03T14:19:17.072Z,44.97
2022-09-03T14:21:49.127Z,45.05
2022-09-03T14:24:22.087Z,44.88
2022-09-03T14:26:52.567Z,45.15
2022-09-03T14:29:22.275Z,44.82
2022-09-03T14:32:05.778Z,44.94
2022-09-03T14:34:43.925Z,45.28
2022-09-03T14:37:22.249Z,44.71
2022-09-03T14:39:53.977Z,45.27
2022-09-03T14:42:38.081Z,44.29
2022-09-03T14:45:25.505Z,45.40
2022-09-03T14:48:06.428Z,45.24
2022-09-03T14:50:46.091Z,45.53
2022-09-03T14:53:38.341Z,45.42
2022-09-03T14:56:21.883Z,45.09
2022-09-03T14:59:13.864Z,44.91
2022-09-03T15:01:42.188Z,45.14
2022-09-03T15:04:39.332Z,45.06
2022-09-03T15:07:18.055Z,44.32
2022-09-03T15:09:54.616Z,44.16
2022-09-03T15:12:24.835Z,44.39
2022-09-03T15:14:55.023Z,44.52
2022-09-03T15:17:34.712Z,44.03
2022-09-03T15:20:17.356Z,44.23
2022-09-03T15:23:13.194Z,44.77
2022-09-03T15:25:54.133Z,45.23
2022-09-03T15:28:26.016Z,44.72
2022-09-03T15:30:57.848Z,44.78
2022-09-03T15:33:31.659Z,44.95
2022-09-03T15:36:12.544Z,45.28
2022-09-03T15:38:50.737Z,45.56
2022-09-03T15:41:39.841Z,45.56
2022-09-03T15:44:10.472Z,45.34
2022-09-03T15:46:50.572Z,45.20
2022-09-03T15:49:25.554Z,45.47
2022-09-03T15:52:00.998Z,45.04
2022-09-03T15:54:36.215Z,45.12
2022-09-03T15:57:09.108Z,44.79
2022-09-03T15:59:41.524Z,44.80
2022-09-03T16:02:12.745Z,45.54
2022-09-03T16:04:52.068Z,45.19
2022-09-03T16:07:23.619Z,45.94
2022-09-03T16:10:23.347Z,45.96
2022-09-03T16:12:59.449Z,46.15
2022-09-03T16:15:29.985Z,46.21
2022-09-03T16:18:00.429Z,46.15
2022-09-03T16:20:35.057Z,46.56
2022-09-03T16:23:07.099Z,46.34
2022-09-03T16:25:38.497Z,46.27
2022-09-03T16:28:15.004Z,46.71
2022-09-03T16:30:53.703Z,46.65
2022-09-03T16:33:27.759Z,46.90
2022-09-03T16:35:59.773Z,46.67
2022-09-03T16:38:35.163Z,47.02
2022-09-03T16:41:15.424Z,46.92
2022-09-03T16:43:47.432Z,46.80
2022-09-03T16:46:24.138Z,46.91
2022-09-03T16:49:06.006Z,46.91
2022-09-03T16:51:41.657Z,46.78
2022-09-03T16:54:20.291Z,46.87
2022-09-03T16:56:55.767Z,46.68
2022-09-03T16:59:54.375Z,47.02
2022-09-03T17:02:49.667Z,46.71
2022-09-03T17:05:28.648Z,47.01
2022-09-03T17:08:06.876Z,47.41
2022-09-03T17:10:41.697Z,47.29
2022-09-03T17:13:23.883Z,46.97
2022-09-03T17:15:55.809Z,46.86
2022-09-03T17:18:34.090Z,47.17
2022-09-03T17:21:13.377Z,47.44
2022-09-03T17:24:04.564Z,47.13
2022-09-03T17:26:36.159Z,47.42
2022-09-03T17:29:14.454Z,47.38
2022-09-03T17:31:51.194Z,47.35
2022-09-03T17:34:35.180Z,47.26
2022-09-03T17:37:09.747Z,47.61
2022-09-03T17:39:53.360Z,47.26
2022-09-03T17:42:28.793Z,47.23
2022-09-03T17:45:06.885Z,47.24
2022-09-03T17:48:06.636Z,47.47
2022-09-03T17:50:45.088Z,47.40
2022-09-03T17:53:20.145Z,47.32
2022-09-03T17:55:55.185Z,47.20
2022-09-03T17:58:28.087Z,47.45
2022-09-03T18:01:04.733Z,47.22
2022-09-03T18:03:42.118Z,47.56
2022-09-03T18:06:12.192Z,47.57
2022-09-03T18:08:47.385Z,47.82
2022-09-03T18:11:20.926Z,47.74
2022-09-03T18:13:52.336Z,47.76
2022-09-03T18:16:26.200Z,47.87
2022-09-03T18:19:01.563Z,48.38
2022-09-03T18:21:51.928Z,48.31
2022-09-03T18:24:43.996Z,48.46
2022-09-03T18:27:32.745Z,48.49
2022-09-03T18:30:21.809Z,48.52
2022-09-03T18:33:07.404Z,48.34
2022-09-03T18:35:54.867Z,48.39
2022-09-03T18:38:44.564Z,48.27
2022-09-03T18:41:59.366Z,48.72
2022-09-03T18:45:18.234Z,48.49
2022-09-03T18:48:15.295Z,48.37
2022-09-03T18:51:09.836Z,48.61
2022-09-03T18:54:04.322Z,48.52
2022-09-03T18:56:56.653Z,48.92
2022-09-03T18:59:58.360Z,48.99
2022-09-03T19:02:52.559Z,48.91
2022-09-03T19:05:43.412Z,49.00
2022-09-03T19:08:33.574Z,49.40
2022-09-03T19:11:23.455Z,48.78
2022-09-03T19:14:09.670Z,49.10
2022-09-03T19:17:03.500Z,49.20
2022-09-03T19:20:09.028Z,48.91
2022-09-03T19:22:55.957Z,49.23
2022-09-03T19:25:44.209Z,49.29
2022-09-03T19:28:32.582Z,49.00
2022-09-03T19:31:33.841Z,49.62
2022-09-03T19:34:24.756Z,49.33
2022-09-03T19:37:16.636Z,49.83
2022-09-03T19:40:13.506Z,49.35
2022-09-03T19:43:08.283Z,49.78
2022-09-03T19:45:58.570Z,49.57
2022-09-03T19:48:53.873Z,49.74
2022-09-03T19:51:41.144Z,49.63
2022-09-03T19:54:27.392Z,49.89
2022-09-03T19:57:13.780Z,50.25
2022-09-03T20:00:03.813Z,50.36
2022-09-03T20:02:49.352Z,50.56
2022-09-03T20:05:37.288Z,50.27
2022-09-03T20:08:23.443Z,50.35
2022-09-03T20:10:53.508Z,50.03
2022-09-03T20:13:21.930Z,49.88
2022-09-03T20:15:58.103Z,50.31
2022-09-03T20:18:35.555Z,50.44
2022-09-03T20:21:11.221Z,50.43
2022-09-03T20:23:42.693Z,50.56
2022-09-03T20:26:21.179Z,50.83
2022-09-03T20:29:12.236Z,50.46
2022-09-03T20:31:49.164Z,50.61
2022-09-03T20:34:27.076Z,50.59
2022-09-03T20:36:58.310Z,50.71
2022-09-03T20:39:34.682Z,50.72
2022-09-03T20:42:17.669Z,50.72
2022-09-03T20:44:54.040Z,50.47
2022-09-03T20:47:45.595Z,51.08
2022-09-03T20:50:24.499Z,51.11
2022-09-03T20:53:03.526Z,51.23
2022-09-03T20:55:35.472Z,51.01
2022-09-03T20:58:09.684Z,51.06
2022-09-03T21:00:50.040Z,50.62
2022-09-03T21:03:23.272Z,50.98
2022-09-03T21:06:03.452Z,50.90
2022-09-03T21:08:53.416Z,50.75
2022-09-03T21:11:29.793Z,51.04
2022-09-03T21:14:04.130Z,51.00
2022-09-03T21:16:39.066Z,51.08
2022-09-03T21:19:12.618Z,51.01
2022-09-03T21:21:48.826Z,51.59
2022-09-03T21:24:20.635Z,52.01
2022-09-03T21:26:51.893Z,52.15
2022-09-03T21:29:23.875Z,52.35
2022-09-03T21:31:56.190Z,51.95
2022-09-03T21:34:30.903Z,52.23
2022-09-03T21:36:58.676Z,52.27
2022-09-03T21:39:29.734Z,52.07
2022-09-03T21:42:03.103Z,52.55
2022-09-03T21:44:48.327Z,52.56
2022-09-03T21:47:17.304Z,52.95
2022-09-03T21:49:56.458Z,52.98
2022-09-03T21:52:29.799Z,53.18
2022-09-03T21:54:57.555Z,53.72
2022-09-03T21:57:32.779Z,53.35
2022-09-03T22:00:11.334Z,53.90
2022-09-03T22:02:39.458Z,53.42
2022-09-03T22:05:09.021Z,53.44
2022-09-03T22:07:50.756Z,54.38
2022-09-03T22:10:26.727Z,53.63
2022-09-03T22:13:00.730Z,53.70
2022-09-03T22:15:33.097Z,54.36
2022-09-03T22:18:03.972Z,55.46
2022-09-03T22:20:33.275Z,54.47
2022-09-03T22:23:04.440Z,54.60
2022-09-03T22:25:37.281Z,53.61
2022-09-03T22:28:12.916Z,54.03
2022-09-03T22:30:45.763Z,54.58
2022-09-03T22:33:19.090Z,54.27
2022-09-03T22:35:59.394Z,55.31
2022-09-03T22:38:53.277Z,55.63
2022-09-03T22:41:36.823Z,55.11
2022-09-03T22:44:09.174Z,55.07
2022-09-03T22:46:43.909Z,55.17
2022-09-03T22:49:17.881Z,54.99
2022-09-03T22:52:00.422Z,54.62
2022-09-03T22:54:37.599Z,54.07
2022-09-03T22:57:09.576Z,54.10
2022-09-03T22:59:40.171Z,54.18
2022-09-03T23:02:15.160Z,54.55
2022-09-03T23:04:48.640Z,54.24
2022-09-03T23:07:21.840Z,54.29
2022-09-03T23:09:54.042Z,54.45
2022-09-03T23:12:27.356Z,54.79
2022-09-03T23:14:58.603Z,54.51
2022-09-03T23:22:36.256Z,54.76
2022-09-03T23:25:07.411Z,54.54
2022-09-03T23:27:40.053Z,55.45
2022-09-03T23:30:08.945Z,55.01
2022-09-03T23:32:36.699Z,55.26
2022-09-03T23:35:09.157Z,55.05
2022-09-03T23:37:54.259Z,55.86
2022-09-03T23:40:30.824Z,55.54
2022-09-03T23:43:25.138Z,56.12
2022-09-03T23:46:01.244Z,55.35
2022-09-03T23:48:40.087Z,56.44
2022-09-03T23:51:12.686Z,55.82
2022-09-03T23:53:50.720Z,55.68
2022-09-03T23:56:39.392Z,55.98
2022-09-03T23:59:16.422Z,56.13
